In Rescue
 
Open Full Screen Window  High Contrast Mode
Wind Gusting 16 knots
10
May 25, 2022 9:05 PM EDT
Weather Information
Wind Direction
  150 °
Wind Speed
  10 kt (12 mph)
Wind Gust
  16 kt (18 mph)
Altimeter
29.96 in
Visibility
10 SM
Temperature
24° C
75° F
Dewpoint
19° C
66° F
Humidity
74%
1hr Rain Fall
00.00 in.
24hr Rain Fall
00.00 in.
Sky Condition
Broken @ 10,000 ft
VFR

METAR KEDJ 260105Z AUTO 15010G16KT 10SM BKN100 24/19 A2996 RMK A01

FAA Disclaimer: The data displayed is for advisory purposes only and is not to be used for flight planning or operations.